createdAt,value
2019-02-27T00:00:09.149Z,0.40
2019-02-27T00:02:38.192Z,0.50
2019-02-27T00:05:08.413Z,0.40
2019-02-27T00:07:37.470Z,0.40
2019-02-27T00:10:07.282Z,0.40
2019-02-27T00:12:35.795Z,0.40
2019-02-27T00:15:05.963Z,0.40
2019-02-27T00:17:34.453Z,0.30
2019-02-27T00:20:05.074Z,0.30
2019-02-27T00:22:33.254Z,0.30
2019-02-27T00:25:03.429Z,0.30
2019-02-27T00:27:31.993Z,0.30
2019-02-27T00:30:04.594Z,0.20
2019-02-27T00:32:30.577Z,0.20
2019-02-27T00:34:58.996Z,0.30
2019-02-27T00:37:27.440Z,0.30
2019-02-27T00:39:55.927Z,0.20
2019-02-27T00:42:33.079Z,0.20
2019-02-27T00:44:54.468Z,0.20
2019-02-27T00:47:22.880Z,0.10
2019-02-27T00:49:51.316Z,0.10
2019-02-27T00:52:19.759Z,0.10
2019-02-27T00:54:48.179Z,0.10
2019-02-27T00:57:20.600Z,0.10
2019-02-27T00:59:46.837Z,0.10
2019-02-27T01:02:15.274Z,0.10
2019-02-27T01:04:43.747Z,0.00
2019-02-27T01:07:12.600Z,0.00
2019-02-27T01:09:41.398Z,0.00
2019-02-27T01:12:09.819Z,-0.10
2019-02-27T01:14:38.254Z,-0.10
2019-02-27T01:17:06.698Z,-0.10
2019-02-27T01:19:38.461Z,-0.10
2019-02-27T01:22:05.277Z,-0.10
2019-02-27T01:24:33.744Z,-0.10
2019-02-27T01:27:04.675Z,-0.10
2019-02-27T01:29:32.449Z,-0.10
2019-02-27T01:32:00.879Z,-0.20
2019-02-27T01:34:29.289Z,-0.20
2019-02-27T01:36:58.028Z,-0.20
2019-02-27T01:39:27.041Z,-0.20
2019-02-27T01:41:57.915Z,-0.20
2019-02-27T01:44:25.654Z,-0.20
2019-02-27T01:46:54.763Z,-0.30
2019-02-27T01:49:23.333Z,-0.30
2019-02-27T01:51:51.800Z,-0.30
2019-02-27T01:54:20.220Z,-0.30
2019-02-27T01:56:48.660Z,-0.30
2019-02-27T01:59:17.825Z,-0.30
2019-02-27T02:01:46.479Z,-0.30
2019-02-27T02:04:14.977Z,-0.30
2019-02-27T02:06:43.453Z,-0.30
2019-02-27T02:09:31.800Z,-0.30
2019-02-27T02:12:15.389Z,-0.30
2019-02-27T02:14:55.857Z,-0.40
2019-02-27T02:17:43.447Z,-0.40
2019-02-27T02:20:32.862Z,-0.40
2019-02-27T02:23:14.169Z,-0.40
2019-02-27T02:26:01.260Z,-0.40
2019-02-27T02:28:33.342Z,-0.40
2019-02-27T02:31:07.594Z,-0.40
2019-02-27T02:34:06.377Z,-0.40
2019-02-27T02:36:46.691Z,-0.40
2019-02-27T02:39:27.216Z,-0.50
2019-02-27T02:42:01.601Z,-0.50
2019-02-27T02:44:39.069Z,-0.50
2019-02-27T02:47:31.621Z,-0.50
2019-02-27T02:50:18.486Z,-0.50
2019-02-27T02:52:52.996Z,-0.50
2019-02-27T02:55:39.192Z,-0.50
2019-02-27T02:58:11.276Z,-0.50
2019-02-27T03:00:49.024Z,-0.60
2019-02-27T03:03:25.962Z,-0.60
2019-02-27T03:06:18.222Z,-0.50
2019-02-27T03:09:07.558Z,-0.50
2019-02-27T03:11:54.089Z,-0.50
2019-02-27T03:14:21.302Z,-0.50
2019-02-27T03:17:09.082Z,-0.50
2019-02-27T03:20:01.542Z,-0.50
2019-02-27T03:22:40.473Z,-0.50
2019-02-27T03:25:25.411Z,-0.60
2019-02-27T03:27:56.895Z,-0.50
2019-02-27T03:30:46.149Z,-0.60
2019-02-27T03:33:26.709Z,-0.50
2019-02-27T03:35:59.912Z,-0.60
2019-02-27T03:39:00.038Z,-0.60
2019-02-27T03:42:00.325Z,-0.60
2019-02-27T03:44:40.480Z,-0.60
2019-02-27T03:47:20.941Z,-0.60
2019-02-27T03:50:14.691Z,-0.60
2019-02-27T03:52:47.829Z,-0.60
2019-02-27T03:55:52.451Z,-0.60
2019-02-27T03:58:30.658Z,-0.60
2019-02-27T04:01:19.186Z,-0.60
2019-02-27T04:04:07.012Z,-0.60
2019-02-27T04:06:59.297Z,-0.60
2019-02-27T04:09:27.825Z,-0.60
2019-02-27T04:11:56.284Z,-0.60
2019-02-27T04:14:29.955Z,-0.70
2019-02-27T04:17:05.467Z,-0.70
2019-02-27T04:19:28.881Z,-0.70
2019-02-27T04:22:00.509Z,-0.70
2019-02-27T04:24:27.669Z,-0.70
2019-02-27T04:26:56.139Z,-0.70
2019-02-27T04:29:24.565Z,-0.70
2019-02-27T04:31:53.000Z,-0.70
2019-02-27T04:34:21.457Z,-0.70
2019-02-27T04:36:49.927Z,-0.80
2019-02-27T04:39:18.381Z,-0.70
2019-02-27T04:41:46.834Z,-0.70
2019-02-27T04:44:15.280Z,-0.80
2019-02-27T04:46:43.720Z,-0.80
2019-02-27T04:49:12.177Z,-0.80
2019-02-27T04:51:40.684Z,-0.80
2019-02-27T04:54:09.125Z,-0.80
2019-02-27T04:56:37.539Z,-0.80
2019-02-27T04:59:06.004Z,-0.80
2019-02-27T05:01:36.636Z,-0.80
2019-02-27T05:04:04.640Z,-0.80
2019-02-27T05:06:33.081Z,-0.80
2019-02-27T05:09:01.532Z,-0.80
2019-02-27T05:11:30.237Z,-0.90
2019-02-27T05:13:58.690Z,-0.90
2019-02-27T05:16:27.168Z,-0.90
2019-02-27T05:18:55.619Z,-0.90
2019-02-27T05:21:24.060Z,-0.80
2019-02-27T05:23:52.526Z,-0.90
2019-02-27T05:26:21.076Z,-0.80
2019-02-27T05:28:49.521Z,-0.80
2019-02-27T05:31:19.026Z,-0.80
2019-02-27T05:33:47.711Z,-0.90
2019-02-27T05:36:16.139Z,-0.80
2019-02-27T05:38:44.636Z,-0.90
2019-02-27T05:41:13.092Z,-0.90
2019-02-27T05:43:41.544Z,-0.90
2019-02-27T05:46:09.978Z,-0.90
2019-02-27T05:48:38.424Z,-0.90
2019-02-27T05:51:07.542Z,-0.90
2019-02-27T05:53:36.804Z,-0.90
2019-02-27T05:56:05.542Z,-0.90
2019-02-27T05:58:33.996Z,-0.90
2019-02-27T06:01:05.043Z,-0.90
2019-02-27T06:03:32.592Z,-0.90
2019-02-27T06:06:01.045Z,-0.90
2019-02-27T06:08:29.784Z,-0.90
2019-02-27T06:10:58.266Z,-1.00
2019-02-27T06:13:26.783Z,-0.90
2019-02-27T06:15:55.235Z,-1.00
2019-02-27T06:18:23.821Z,-1.00
2019-02-27T06:20:52.300Z,-0.90
2019-02-27T06:23:20.744Z,-1.00
2019-02-27T06:25:49.213Z,-1.00
2019-02-27T06:28:18.749Z,-0.90
2019-02-27T06:30:47.787Z,-1.00
2019-02-27T06:33:16.258Z,-1.00
2019-02-27T06:35:44.676Z,-1.00
2019-02-27T06:38:13.152Z,-0.90
2019-02-27T06:40:42.867Z,-0.90
2019-02-27T06:43:11.400Z,-0.90
2019-02-27T06:45:39.814Z,-0.90
2019-02-27T06:48:10.225Z,-0.90
2019-02-27T06:50:38.450Z,-0.90
2019-02-27T06:53:06.879Z,-0.90
2019-02-27T06:55:35.341Z,-0.80
2019-02-27T06:58:03.775Z,-0.80
2019-02-27T07:00:35.768Z,-0.80
2019-02-27T07:03:02.480Z,-0.80
2019-02-27T07:05:30.943Z,-0.70
2019-02-27T07:07:59.385Z,-0.70
2019-02-27T07:10:27.860Z,-0.70
2019-02-27T07:12:56.292Z,-0.60
2019-02-27T07:15:24.752Z,-0.60
2019-02-27T07:17:53.556Z,-0.60
2019-02-27T07:20:24.387Z,-0.50
2019-02-27T07:22:52.192Z,-0.50
2019-02-27T07:25:20.752Z,-0.50
2019-02-27T07:27:49.293Z,-0.50
2019-02-27T07:30:21.126Z,-0.40
2019-02-27T07:32:49.668Z,-0.40
2019-02-27T07:35:18.212Z,-0.40
2019-02-27T07:37:48.014Z,-0.30
2019-02-27T07:40:21.064Z,-0.30
2019-02-27T07:42:49.492Z,-0.20
2019-02-27T07:45:22.625Z,-0.10
2019-02-27T07:47:51.453Z,-0.10
2019-02-27T07:50:20.721Z,0.00
2019-02-27T07:52:49.283Z,0.10
2019-02-27T07:55:22.710Z,0.20
2019-02-27T07:57:48.617Z,0.30
2019-02-27T08:00:22.217Z,0.40
2019-02-27T08:02:50.669Z,0.60
2019-02-27T08:05:19.237Z,0.70
2019-02-27T08:07:49.057Z,0.80
2019-02-27T08:10:25.498Z,1.00
2019-02-27T08:12:56.502Z,1.10
2019-02-27T08:15:25.210Z,1.20
2019-02-27T08:17:57.431Z,1.30
2019-02-27T08:20:24.073Z,1.50
2019-02-27T08:22:52.552Z,1.70
2019-02-27T08:25:21.104Z,1.90
2019-02-27T08:27:49.597Z,2.10
2019-02-27T08:30:25.613Z,2.30
2019-02-27T08:32:54.112Z,2.60
2019-02-27T08:35:22.729Z,2.80
2019-02-27T08:37:51.343Z,3.00
2019-02-27T08:40:24.060Z,3.30
2019-02-27T08:42:50.096Z,3.70
2019-02-27T08:45:20.590Z,4.10
2019-02-27T08:47:49.381Z,4.50
2019-02-27T08:50:21.881Z,5.00
2019-02-27T08:52:51.718Z,5.60
2019-02-27T08:55:22.620Z,6.10
2019-02-27T08:57:55.796Z,6.40
2019-02-27T09:00:26.845Z,6.70
2019-02-27T09:02:55.888Z,7.10
2019-02-27T09:05:24.493Z,7.40
2019-02-27T09:07:53.083Z,7.60
2019-02-27T09:10:23.339Z,7.70
2019-02-27T09:12:53.374Z,7.90
2019-02-27T09:15:21.952Z,8.00
2019-02-27T09:17:50.451Z,8.10
2019-02-27T09:20:21.146Z,8.20
2019-02-27T09:22:49.799Z,8.50
2019-02-27T09:25:23.376Z,8.80
2019-02-27T09:27:48.660Z,9.00
2019-02-27T09:30:28.747Z,9.20
2019-02-27T09:32:54.382Z,9.40
2019-02-27T09:35:22.916Z,9.50
2019-02-27T09:37:52.065Z,9.70
2019-02-27T09:40:25.594Z,9.80
2019-02-27T09:42:54.142Z,10.00
2019-02-27T09:45:35.662Z,10.20
2019-02-27T09:48:04.490Z,10.40
2019-02-27T09:50:37.613Z,10.80
2019-02-27T09:53:06.184Z,11.20
2019-02-27T09:55:34.754Z,11.60
2019-02-27T09:58:03.296Z,11.90
2019-02-27T10:00:45.976Z,12.20
2019-02-27T10:03:19.826Z,12.20
2019-02-27T10:05:44.878Z,12.20
2019-02-27T10:08:13.547Z,12.10
2019-02-27T10:10:44.879Z,12.10
2019-02-27T10:13:12.228Z,12.00
2019-02-27T10:15:40.687Z,11.90
2019-02-27T10:18:09.263Z,11.80
2019-02-27T10:20:38.051Z,11.80
2019-02-27T10:23:06.493Z,11.90
2019-02-27T10:25:34.970Z,12.00
2019-02-27T10:28:04.674Z,12.20
2019-02-27T10:30:33.248Z,12.30
2019-02-27T10:33:03.308Z,12.50
2019-02-27T10:35:32.163Z,12.60
2019-02-27T10:38:00.700Z,12.80
2019-02-27T10:40:29.160Z,13.00
2019-02-27T10:42:57.990Z,13.20
2019-02-27T10:45:26.505Z,13.50
2019-02-27T10:47:54.969Z,14.00
2019-02-27T10:50:23.477Z,14.90
2019-02-27T10:52:52.088Z,15.90
2019-02-27T10:55:21.752Z,16.90
2019-02-27T10:57:50.341Z,17.90
2019-02-27T11:00:28.657Z,18.80
2019-02-27T11:02:57.588Z,19.70
2019-02-27T11:05:27.788Z,20.60
2019-02-27T11:07:56.288Z,21.20
2019-02-27T11:10:25.460Z,21.60
2019-02-27T11:12:53.932Z,22.10
2019-02-27T11:15:23.103Z,22.60
2019-02-27T11:17:51.605Z,23.00
2019-02-27T11:20:21.061Z,23.50
2019-02-27T11:22:50.602Z,24.00
2019-02-27T11:25:27.271Z,24.40
2019-02-27T11:27:55.815Z,24.80
2019-02-27T11:30:36.832Z,25.00
2019-02-27T11:33:05.795Z,25.10
2019-02-27T11:35:34.387Z,25.30
2019-02-27T11:38:02.970Z,25.40
2019-02-27T11:40:31.497Z,25.50
2019-02-27T11:43:01.112Z,25.60
2019-02-27T11:45:29.789Z,25.90
2019-02-27T11:47:58.351Z,26.10
2019-02-27T11:50:26.811Z,26.20
2019-02-27T11:52:55.374Z,26.30
2019-02-27T11:55:24.545Z,26.30
2019-02-27T11:57:53.312Z,26.50
2019-02-27T12:00:26.863Z,26.60
2019-02-27T12:02:55.652Z,26.60
2019-02-27T12:05:24.221Z,26.60
2019-02-27T12:07:52.796Z,26.70
2019-02-27T12:10:26.246Z,26.90
2019-02-27T12:12:59.714Z,26.90
2019-02-27T12:15:24.949Z,26.90
2019-02-27T12:17:53.709Z,26.90
2019-02-27T12:20:23.348Z,27.00
2019-02-27T12:22:51.841Z,26.90
2019-02-27T12:25:21.200Z,26.90
2019-02-27T12:27:54.261Z,26.80
2019-02-27T12:30:30.309Z,26.60
2019-02-27T12:32:58.915Z,26.50
2019-02-27T12:35:30.448Z,26.50
2019-02-27T12:37:58.882Z,26.70
2019-02-27T12:40:27.426Z,26.80
2019-02-27T12:42:55.949Z,27.00
2019-02-27T12:45:29.625Z,27.10
2019-02-27T12:47:58.329Z,27.10
2019-02-27T12:50:31.472Z,27.20
2019-02-27T12:53:00.252Z,27.40
2019-02-27T12:55:28.830Z,27.60
2019-02-27T12:57:57.294Z,27.60
2019-02-27T13:00:29.811Z,27.70
2019-02-27T13:02:59.136Z,27.80
2019-02-27T13:05:28.372Z,27.90
2019-02-27T13:07:56.865Z,28.00
2019-02-27T13:10:33.100Z,28.20
2019-02-27T13:12:58.779Z,28.30
2019-02-27T13:15:28.898Z,28.10
2019-02-27T13:17:58.116Z,28.00
2019-02-27T13:20:31.999Z,28.00
2019-02-27T13:23:03.889Z,28.00
2019-02-27T13:25:30.715Z,28.10
2019-02-27T13:27:59.262Z,28.20
2019-02-27T13:30:28.442Z,28.20
2019-02-27T13:33:00.671Z,28.30
2019-02-27T13:35:28.538Z,28.30
2019-02-27T13:37:57.452Z,28.20
2019-02-27T13:40:27.295Z,28.10
2019-02-27T13:42:55.896Z,28.00
2019-02-27T13:45:32.340Z,28.00
2019-02-27T13:48:04.802Z,28.00
2019-02-27T13:50:31.052Z,28.00
2019-02-27T13:52:59.572Z,27.80
2019-02-27T13:55:28.101Z,27.50
2019-02-27T13:57:59.298Z,27.00
2019-02-27T14:00:31.068Z,26.40
2019-02-27T14:02:59.597Z,25.90
2019-02-27T14:05:29.559Z,25.50
2019-02-27T14:07:58.972Z,25.00
2019-02-27T14:10:32.574Z,24.30
2019-02-27T14:13:01.129Z,23.60
2019-02-27T14:15:31.586Z,22.80
2019-02-27T14:18:00.472Z,22.00
2019-02-27T14:20:29.286Z,21.30
2019-02-27T14:22:58.436Z,20.80
2019-02-27T14:25:32.677Z,20.30
2019-02-27T14:27:58.819Z,19.80
2019-02-27T14:30:35.489Z,19.40
2019-02-27T14:33:03.216Z,19.10
2019-02-27T14:35:35.309Z,18.70
2019-02-27T14:38:01.962Z,18.40
2019-02-27T14:40:30.431Z,18.20
2019-02-27T14:42:58.959Z,17.90
2019-02-27T14:45:27.452Z,17.70
2019-02-27T14:47:55.924Z,17.50
2019-02-27T14:50:24.885Z,17.40
2019-02-27T14:52:53.387Z,17.20
2019-02-27T14:55:22.687Z,17.10
2019-02-27T14:57:51.539Z,16.90
2019-02-27T15:00:25.069Z,16.80
2019-02-27T15:02:55.671Z,16.70
2019-02-27T15:05:24.019Z,16.60
2019-02-27T15:07:54.646Z,16.50
2019-02-27T15:10:24.650Z,16.40
2019-02-27T15:12:54.990Z,16.20
2019-02-27T15:15:27.717Z,16.10
2019-02-27T15:17:56.313Z,16.10
2019-02-27T15:20:26.380Z,16.00
2019-02-27T15:22:55.019Z,15.90
2019-02-27T15:25:23.686Z,15.80
2019-02-27T15:27:52.187Z,15.70
2019-02-27T15:30:30.944Z,15.70
2019-02-27T15:33:03.789Z,15.70
2019-02-27T15:35:29.620Z,15.60
2019-02-27T15:37:58.082Z,15.50
2019-02-27T15:40:30.286Z,15.40
2019-02-27T15:42:59.009Z,15.20
2019-02-27T15:45:28.418Z,15.00
2019-02-27T15:47:56.915Z,15.00
2019-02-27T15:50:30.150Z,15.00
2019-02-27T15:52:58.680Z,15.00
2019-02-27T15:55:33.050Z,15.00
2019-02-27T15:57:57.533Z,15.00
2019-02-27T16:00:26.995Z,15.00
2019-02-27T16:02:55.603Z,15.00
2019-02-27T16:05:24.161Z,15.00
2019-02-27T16:07:52.740Z,14.80
2019-02-27T16:10:26.582Z,14.70
2019-02-27T16:13:00.055Z,14.60
2019-02-27T16:15:25.636Z,14.40
2019-02-27T16:17:54.105Z,14.30
2019-02-27T16:20:26.493Z,14.10
2019-02-27T16:22:55.028Z,13.90
2019-02-27T16:25:24.541Z,13.70
2019-02-27T16:27:53.008Z,13.50
2019-02-27T16:30:32.522Z,13.40
2019-02-27T16:32:59.527Z,13.20
2019-02-27T16:35:27.953Z,13.10
2019-02-27T16:37:57.791Z,13.00
2019-02-27T16:40:28.499Z,12.90
2019-02-27T16:42:57.052Z,12.80
2019-02-27T16:45:37.311Z,12.60
2019-02-27T16:48:06.190Z,12.50
2019-02-27T16:50:34.800Z,12.30
2019-02-27T16:53:03.299Z,12.20
2019-02-27T16:55:35.687Z,12.10
2019-02-27T16:58:02.237Z,12.00
2019-02-27T17:00:31.802Z,11.90
2019-02-27T17:03:00.353Z,11.70
2019-02-27T17:05:28.933Z,11.60
2019-02-27T17:08:02.232Z,11.50
2019-02-27T17:10:32.311Z,11.30
2019-02-27T17:13:00.790Z,11.20
2019-02-27T17:15:34.793Z,11.00
2019-02-27T17:17:59.766Z,10.90
2019-02-27T17:20:28.660Z,10.80
2019-02-27T17:22:57.277Z,10.70
2019-02-27T17:25:29.055Z,10.60
2019-02-27T17:27:55.992Z,10.40
2019-02-27T17:30:36.651Z,10.30
2019-02-27T17:33:04.100Z,10.20
2019-02-27T17:35:32.378Z,10.10
2019-02-27T17:38:00.858Z,9.90
2019-02-27T17:40:29.445Z,9.90
2019-02-27T17:42:57.860Z,9.80
2019-02-27T17:45:27.925Z,9.70
2019-02-27T17:47:56.456Z,9.60
2019-02-27T17:50:25.054Z,9.50
2019-02-27T17:52:53.488Z,9.50
2019-02-27T17:55:22.057Z,9.40
2019-02-27T17:57:50.513Z,9.30
2019-02-27T18:00:30.749Z,9.30
2019-02-27T18:02:59.177Z,9.20
2019-02-27T18:05:27.645Z,9.10
2019-02-27T18:07:56.103Z,9.00
2019-02-27T18:10:24.532Z,9.00
2019-02-27T18:12:53.060Z,9.00
2019-02-27T18:15:22.434Z,8.90
2019-02-27T18:17:51.020Z,8.90
2019-02-27T18:20:24.170Z,8.80
2019-02-27T18:22:50.358Z,8.80
2019-02-27T18:25:19.057Z,8.70
2019-02-27T18:27:48.008Z,8.60
2019-02-27T18:30:23.708Z,8.50
2019-02-27T18:32:52.157Z,8.40
2019-02-27T18:35:20.767Z,8.30
2019-02-27T18:37:53.285Z,8.20
2019-02-27T18:40:20.603Z,8.10
2019-02-27T18:42:49.105Z,8.00
2019-02-27T18:45:20.641Z,7.90
2019-02-27T18:47:49.136Z,7.80
2019-02-27T18:50:17.677Z,7.70
2019-02-27T18:52:46.168Z,7.60
2019-02-27T18:55:15.386Z,7.50
2019-02-27T18:57:47.108Z,7.40
2019-02-27T19:00:25.075Z,7.30
2019-02-27T19:02:56.287Z,7.30
2019-02-27T19:05:24.881Z,7.10
2019-02-27T19:07:54.766Z,7.10
2019-02-27T19:10:23.751Z,7.00
2019-02-27T19:12:52.291Z,7.00
2019-02-27T19:15:25.029Z,6.90
2019-02-27T19:17:53.786Z,6.80
2019-02-27T19:20:34.232Z,6.80
2019-02-27T19:23:03.012Z,6.70
2019-02-27T19:25:34.654Z,6.60
2019-02-27T19:28:01.821Z,6.60
2019-02-27T19:30:30.469Z,6.50
2019-02-27T19:33:01.865Z,6.50
2019-02-27T19:35:29.213Z,6.50
2019-02-27T19:37:58.013Z,6.40
2019-02-27T19:40:29.948Z,6.40
2019-02-27T19:43:01.683Z,6.50
2019-02-27T19:45:30.395Z,6.50
2019-02-27T19:47:58.912Z,6.50
2019-02-27T19:50:27.994Z,6.40
2019-02-27T19:52:56.875Z,6.40
2019-02-27T19:55:27.289Z,6.30
2019-02-27T19:57:55.753Z,6.30
2019-02-27T20:00:33.603Z,6.30
2019-02-27T20:03:01.538Z,6.30
2019-02-27T20:05:30.510Z,6.20
2019-02-27T20:07:59.116Z,6.20
2019-02-27T20:10:30.190Z,6.20
2019-02-27T20:12:57.810Z,6.10
2019-02-27T20:15:27.197Z,6.10
2019-02-27T20:17:55.785Z,6.10
2019-02-27T20:20:24.884Z,6.00
2019-02-27T20:22:54.765Z,6.00
2019-02-27T20:25:28.709Z,5.90
2019-02-27T20:27:58.691Z,5.90
2019-02-27T20:30:28.721Z,5.90
2019-02-27T20:32:59.814Z,5.90
2019-02-27T20:35:27.451Z,5.90
2019-02-27T20:37:56.107Z,5.80
2019-02-27T20:40:24.630Z,5.80
2019-02-27T20:42:55.176Z,5.80
2019-02-27T20:45:29.384Z,5.70
2019-02-27T20:48:05.178Z,5.70
2019-02-27T20:51:06.006Z,5.70
2019-02-27T20:53:33.483Z,5.60
2019-02-27T20:56:02.898Z,5.60
2019-02-27T20:58:32.289Z,5.60
2019-02-27T21:01:01.427Z,5.50
2019-02-27T21:03:29.896Z,5.50
2019-02-27T21:05:58.348Z,5.50
2019-02-27T21:08:26.812Z,5.40
2019-02-27T21:10:56.375Z,5.40
2019-02-27T21:13:24.879Z,5.40
2019-02-27T21:15:53.552Z,5.40
2019-02-27T21:18:22.001Z,5.30
2019-02-27T21:20:50.967Z,5.30
2019-02-27T21:23:19.582Z,5.30
2019-02-27T21:25:49.209Z,5.30
2019-02-27T21:28:20.845Z,5.30
2019-02-27T21:30:51.871Z,5.30
2019-02-27T21:33:18.697Z,5.30
2019-02-27T21:35:47.299Z,5.30
2019-02-27T21:38:16.654Z,5.30
2019-02-27T21:40:45.428Z,5.30
2019-02-27T21:43:13.988Z,5.30
2019-02-27T21:45:42.432Z,5.30
2019-02-27T21:48:10.902Z,5.30
2019-02-27T21:50:39.852Z,5.30
2019-02-27T21:53:08.948Z,5.30
2019-02-27T21:55:37.377Z,5.30
2019-02-27T21:58:05.986Z,5.30
2019-02-27T22:00:34.805Z,5.40
2019-02-27T22:03:04.928Z,5.40
2019-02-27T22:05:42.294Z,5.50
2019-02-27T22:08:05.453Z,5.50
2019-02-27T22:10:33.764Z,5.50
2019-02-27T22:13:02.194Z,5.50
2019-02-27T22:15:31.161Z,5.60
2019-02-27T22:17:59.711Z,5.60
2019-02-27T22:20:28.225Z,5.60
2019-02-27T22:22:56.723Z,5.60
2019-02-27T22:25:27.443Z,5.70
2019-02-27T22:27:55.703Z,5.70
2019-02-27T22:30:24.301Z,5.70
2019-02-27T22:32:52.728Z,5.70
2019-02-27T22:35:21.180Z,5.70
2019-02-27T22:37:52.366Z,5.80
2019-02-27T22:40:21.435Z,5.80
2019-02-27T22:42:49.947Z,5.70
2019-02-27T22:45:20.226Z,5.70
2019-02-27T22:47:49.792Z,5.70
2019-02-27T22:50:21.434Z,5.70
2019-02-27T22:52:54.217Z,5.70
2019-02-27T22:55:20.428Z,5.60
2019-02-27T22:57:49.024Z,5.60
2019-02-27T23:00:42.951Z,5.60
2019-02-27T23:03:10.123Z,5.60
2019-02-27T23:05:39.158Z,5.70
2019-02-27T23:08:07.636Z,5.70
2019-02-27T23:10:36.092Z,5.70
2019-02-27T23:13:04.615Z,5.80
2019-02-27T23:15:33.134Z,5.80
2019-02-27T23:18:02.550Z,5.80
2019-02-27T23:20:32.143Z,5.90
2019-02-27T23:23:02.610Z,5.90
2019-02-27T23:25:30.813Z,6.00
2019-02-27T23:28:00.825Z,6.10
2019-02-27T23:30:29.416Z,6.20
2019-02-27T23:32:59.355Z,6.30
2019-02-27T23:35:28.091Z,6.30
2019-02-27T23:37:56.553Z,6.40
2019-02-27T23:40:25.087Z,6.50
2019-02-27T23:42:53.547Z,6.50
2019-02-27T23:45:22.280Z,6.60
2019-02-27T23:47:50.729Z,6.70
2019-02-27T23:50:19.236Z,6.70
2019-02-27T23:52:47.747Z,6.70
2019-02-27T23:55:16.194Z,6.80
2019-02-27T23:57:44.636Z,6.80
